Pagrindinis puslapis
METAR-TAF:

METAR-TAF

Oro uostai :

Kemis, Suomija

platuma: 65-47N, ilguma: 024-35E, Aukštis: 15 m

Dabartinis oras

Ataskaita buvo paskelbta 20 minutes, ne 09:50 UTC
Vėjas 10 kt iš Pietų/Pietryčių
Temperatūra -2°C
Drėgmė 93%
Slėgis 1004 hPa
Matomumas 10 km arba daugiau
Apsiniaukę ne aukštis 600 ft
sniegas

METAR: EFKE 070950Z AUTO 16010KT 9999 -SN OVC006 M02/M03 Q1004

Laikas: 12:10 (10:10 UTC)

Prognozė

Ataskaita buvo paskelbta 7 valandos ir 32 minutes, ne 02:38 UTC
Prognozė galioja nuo 07 metu 03 UTC su 07 metu 06 UTC
Vėjas 4 kt iš Šiaurės Rytų
Matomumas 10 km arba daugiau
Su prošvaistėmis ne aukštis 2000 ft
Laikinai
nuo 07 metu 03 UTC su 07 metu 06 UTC
Matomumas: 2500 m
Su prošvaistėmis ne aukštis 700 ft
sniegas
Tikimybė 30%
nuo 07 metu 04 UTC su 07 metu 06 UTC
Su prošvaistėmis ne aukštis 400 ft

TAF: EFKE 070238Z 0703/0706 04004KT 9999 BKN020 TEMPO 0703/0706 2500 -SN BKN007 PROB30 0704/0706 BKN004

Orai ataskaitas ir orų prognozės (METAR, TAF).

turimą stotys yra geltonos ir raudonos taškus žemėlapyje.

Perkelti pele per norėdami pamatyti stoties vardą.

Tada spustelėkite, norėdami matyti oro stebėjimo ir prognozės.

Norėdami pakeisti žemėlapį: spustelėkite ant žalios mygtukų su juodo kryžiaus žemyn,; žalią mygtuką su brūkšneliu, jei norite nutolinti; arba žalių rodyklių gretimoms žemėlapius.


METAR-TAF: